createdAt,value
2022-10-31T00:00:27.869Z,100774.79
2022-10-31T00:03:14.245Z,100776.95
2022-10-31T00:05:42.889Z,100776.07
2022-10-31T00:08:09.201Z,100771.94
2022-10-31T00:10:38.431Z,100773.98
2022-10-31T00:13:04.861Z,100774.52
2022-10-31T00:15:33.816Z,100775.27
2022-10-31T00:18:00.424Z,100778.21
2022-10-31T00:20:26.908Z,100778.17
2022-10-31T00:22:53.373Z,100777.22
2022-10-31T00:25:20.848Z,100775.98
2022-10-31T00:27:47.144Z,100774.27
2022-10-31T00:30:13.733Z,100773.91
2022-10-31T00:32:40.896Z,100770.83
2022-10-31T00:35:07.489Z,100772.05
2022-10-31T00:37:33.704Z,100776.95
2022-10-31T00:40:00.035Z,100776.33
2022-10-31T00:42:26.327Z,100772.67
2022-10-31T00:44:52.701Z,100772.73
2022-10-31T00:47:20.014Z,100772.95
2022-10-31T00:49:46.480Z,100773.73
2022-10-31T00:52:12.821Z,100773.09
2022-10-31T00:54:39.184Z,100774.05
2022-10-31T00:57:05.421Z,100774.00
2022-10-31T00:59:31.649Z,100777.86
2022-10-31T01:01:58.010Z,100773.36
2022-10-31T01:04:24.678Z,100768.96
2022-10-31T01:06:50.961Z,100765.89
2022-10-31T01:09:17.240Z,100771.71
2022-10-31T01:11:43.575Z,100771.80
2022-10-31T01:14:10.251Z,100769.55
2022-10-31T01:16:36.601Z,100766.50
2022-10-31T01:19:03.310Z,100775.24
2022-10-31T01:21:30.031Z,100772.54
2022-10-31T01:23:59.672Z,100771.59
2022-10-31T01:26:28.495Z,100772.77
2022-10-31T01:29:09.286Z,100772.93
2022-10-31T01:31:38.705Z,100771.52
2022-10-31T01:34:06.863Z,100769.39
2022-10-31T01:36:35.657Z,100771.25
2022-10-31T01:39:07.895Z,100772.14
2022-10-31T01:41:38.192Z,100772.52
2022-10-31T01:44:13.761Z,100772.23
2022-10-31T01:46:42.931Z,100773.12
2022-10-31T01:49:18.914Z,100779.09
2022-10-31T01:51:56.698Z,100782.20
2022-10-31T01:54:27.165Z,100788.18
2022-10-31T01:56:56.699Z,100784.85
2022-10-31T01:59:25.735Z,100785.11
2022-10-31T02:01:52.893Z,100784.56
2022-10-31T02:04:21.996Z,100782.71
2022-10-31T02:06:55.309Z,100779.72
2022-10-31T02:09:24.353Z,100781.66
2022-10-31T02:11:57.550Z,100783.23
2022-10-31T02:14:29.729Z,100786.61
2022-10-31T02:16:56.564Z,100778.18
2022-10-31T02:20:09.661Z,100776.42
2022-10-31T02:23:23.337Z,100775.55
2022-10-31T02:26:08.031Z,100777.71
2022-10-31T02:28:34.375Z,100780.78
2022-10-31T02:31:12.770Z,100782.86
2022-10-31T02:33:52.592Z,100783.05
2022-10-31T02:36:28.896Z,100778.25
2022-10-31T02:39:02.455Z,100779.15
2022-10-31T02:41:52.906Z,100784.61
2022-10-31T02:44:29.822Z,100781.11
2022-10-31T02:47:14.643Z,100785.83
2022-10-31T02:49:54.461Z,100784.27
2022-10-31T02:52:24.012Z,100789.17
2022-10-31T02:54:52.302Z,100790.98
2022-10-31T02:57:26.110Z,100798.27
2022-10-31T03:00:00.693Z,100796.23
2022-10-31T03:02:33.376Z,100800.13
2022-10-31T03:05:18.012Z,100798.98
2022-10-31T03:08:05.076Z,100799.70
2022-10-31T03:11:06.846Z,100805.74
2022-10-31T03:13:41.404Z,100809.77
2022-10-31T03:16:07.839Z,100812.83
2022-10-31T03:18:40.323Z,100810.52
2022-10-31T03:21:37.836Z,100814.52
2022-10-31T03:24:07.030Z,100823.53
2022-10-31T03:26:38.680Z,100821.20
2022-10-31T03:29:11.401Z,100822.86
2022-10-31T03:31:57.567Z,100825.80
2022-10-31T03:34:24.280Z,100827.08
2022-10-31T03:36:55.336Z,100826.25
2022-10-31T03:39:23.762Z,100826.05
2022-10-31T03:41:56.697Z,100834.45
2022-10-31T03:44:25.625Z,100833.45
2022-10-31T03:46:58.118Z,100833.08
2022-10-31T03:49:24.733Z,100829.83
2022-10-31T03:51:56.789Z,100840.08
2022-10-31T03:54:30.461Z,100838.77
2022-10-31T03:57:05.784Z,100845.81
2022-10-31T04:00:02.096Z,100844.87
2022-10-31T04:02:33.161Z,100842.04
2022-10-31T04:05:01.698Z,100840.64
2022-10-31T04:07:32.863Z,100841.41
2022-10-31T04:10:04.766Z,100843.64
2022-10-31T04:12:33.111Z,100837.94
2022-10-31T04:15:30.629Z,100833.74
2022-10-31T04:17:59.974Z,100835.92
2022-10-31T04:20:35.609Z,100830.30
2022-10-31T04:23:03.106Z,100835.32
2022-10-31T04:25:30.766Z,100835.70
2022-10-31T04:27:58.216Z,100836.34
2022-10-31T04:30:24.797Z,100832.77
2022-10-31T04:32:51.057Z,100835.75
2022-10-31T04:35:17.690Z,100833.80
2022-10-31T04:37:44.041Z,100832.54
2022-10-31T04:40:10.994Z,100832.33
2022-10-31T04:42:55.154Z,100836.01
2022-10-31T04:45:21.783Z,100831.92
2022-10-31T04:47:50.751Z,100830.11
2022-10-31T04:50:17.178Z,100830.24
2022-10-31T04:52:45.758Z,100832.03
2022-10-31T04:55:14.466Z,100838.13
2022-10-31T04:57:59.796Z,100839.75
2022-10-31T05:00:26.868Z,100842.34
2022-10-31T05:02:55.702Z,100846.23
2022-10-31T05:05:29.351Z,100850.17
2022-10-31T05:07:55.766Z,100848.59
2022-10-31T05:10:27.695Z,100846.14
2022-10-31T05:12:57.147Z,100842.79
2022-10-31T05:15:46.837Z,100844.05
2022-10-31T05:18:42.253Z,100846.97
2022-10-31T05:21:20.349Z,100849.73
2022-10-31T05:23:55.281Z,100845.20
2022-10-31T05:26:23.657Z,100845.95
2022-10-31T05:28:50.941Z,100846.48
2022-10-31T05:31:17.275Z,100851.70
2022-10-31T05:33:43.606Z,100854.40
2022-10-31T05:36:28.137Z,100856.02
2022-10-31T05:38:59.296Z,100857.63
2022-10-31T05:41:33.655Z,100854.46
2022-10-31T05:44:10.002Z,100860.08
2022-10-31T05:46:48.297Z,100864.20
2022-10-31T05:49:43.190Z,100865.10
2022-10-31T05:52:25.534Z,100866.98
2022-10-31T05:54:58.197Z,100865.80
2022-10-31T05:57:24.777Z,100866.81
2022-10-31T05:59:55.073Z,100869.02
2022-10-31T06:02:22.073Z,100865.95
2022-10-31T06:05:10.834Z,100861.48
2022-10-31T06:07:37.154Z,100868.80
2022-10-31T06:10:05.847Z,100868.58
2022-10-31T06:12:32.411Z,100872.09
2022-10-31T06:15:11.716Z,100876.33
2022-10-31T06:17:37.956Z,100878.90
2022-10-31T06:20:21.764Z,100878.11
2022-10-31T06:22:55.910Z,100879.89
2022-10-31T06:25:22.629Z,100879.45
2022-10-31T06:27:49.676Z,100879.42
2022-10-31T06:30:16.285Z,100877.17
2022-10-31T06:32:44.927Z,100876.95
2022-10-31T06:35:11.367Z,100882.63
2022-10-31T06:37:39.542Z,100880.52
2022-10-31T06:40:24.204Z,100880.14
2022-10-31T06:43:07.762Z,100876.09
2022-10-31T06:45:34.757Z,100878.14
2022-10-31T06:48:17.664Z,100883.15
2022-10-31T06:51:20.047Z,100885.98
2022-10-31T06:53:47.241Z,100890.23
2022-10-31T06:56:13.826Z,100893.02
2022-10-31T06:58:44.592Z,100890.11
2022-10-31T07:01:11.285Z,100894.40
2022-10-31T07:03:37.571Z,100891.29
2022-10-31T07:06:04.014Z,100891.30
2022-10-31T07:08:32.089Z,100896.55
2022-10-31T07:10:58.487Z,100895.61
2022-10-31T07:13:25.932Z,100891.38
2022-10-31T07:16:01.470Z,100890.38
2022-10-31T07:18:28.235Z,100889.57
2022-10-31T07:20:54.492Z,100896.57
2022-10-31T07:23:21.183Z,100897.52
2022-10-31T07:25:59.441Z,100898.84
2022-10-31T07:28:31.733Z,100895.23
2022-10-31T07:30:59.225Z,100895.43
2022-10-31T07:33:26.620Z,100898.27
2022-10-31T07:36:18.875Z,100902.20
2022-10-31T07:38:45.271Z,100906.58
2022-10-31T07:41:11.580Z,100910.59
2022-10-31T07:43:41.500Z,100909.41
2022-10-31T07:46:16.833Z,100910.79
2022-10-31T07:49:01.972Z,100907.98
2022-10-31T07:51:47.358Z,100909.34
2022-10-31T07:54:45.888Z,100908.97
2022-10-31T07:57:12.164Z,100909.69
2022-10-31T07:59:38.604Z,100910.90
2022-10-31T08:02:05.423Z,100908.14
2022-10-31T08:04:31.768Z,100908.94
2022-10-31T08:07:17.396Z,100903.17
2022-10-31T08:09:48.347Z,100906.05
2022-10-31T08:12:19.828Z,100903.00
2022-10-31T08:14:46.494Z,100902.37
2022-10-31T08:17:13.646Z,100899.05
2022-10-31T08:19:45.789Z,100901.61
2022-10-31T08:22:13.854Z,100903.64
2022-10-31T08:27:06.332Z,100907.82
2022-10-31T08:29:32.662Z,100909.30
2022-10-31T08:31:59.241Z,100916.25
2022-10-31T08:34:43.964Z,100919.75
2022-10-31T08:37:28.623Z,100922.43
2022-10-31T08:39:55.404Z,100927.44
2022-10-31T08:42:21.917Z,100935.38
2022-10-31T08:44:48.415Z,100936.65
2022-10-31T08:47:14.815Z,100936.36
2022-10-31T08:49:41.340Z,100938.38
2022-10-31T08:52:12.035Z,100943.98
2022-10-31T08:54:40.825Z,100943.11
2022-10-31T08:57:33.481Z,100945.58
2022-10-31T08:59:59.775Z,100943.88
2022-10-31T09:02:46.232Z,100947.38
2022-10-31T09:05:13.592Z,100944.12
2022-10-31T09:07:39.863Z,100942.85
2022-10-31T09:10:06.589Z,100940.50
2022-10-31T09:12:35.100Z,100934.05
2022-10-31T09:15:19.972Z,100934.49
2022-10-31T09:17:55.936Z,100937.25
2022-10-31T09:20:39.830Z,100934.98
2022-10-31T09:23:08.897Z,100935.45
2022-10-31T09:25:38.374Z,100936.27
2022-10-31T09:28:32.812Z,100930.72
2022-10-31T09:31:04.245Z,100930.05
2022-10-31T09:33:48.924Z,100933.70
2022-10-31T09:36:36.638Z,100930.55
2022-10-31T09:39:03.697Z,100931.40
2022-10-31T09:42:01.918Z,100934.66
2022-10-31T09:44:44.751Z,100937.09
2022-10-31T09:47:27.185Z,100935.77
2022-10-31T09:50:48.576Z,100939.82
2022-10-31T09:53:53.201Z,100942.02
2022-10-31T09:56:23.148Z,100942.20
2022-10-31T09:58:58.498Z,100940.35
2022-10-31T10:02:06.672Z,100942.39
2022-10-31T10:04:59.815Z,100938.94
2022-10-31T10:07:33.277Z,100944.55
2022-10-31T10:10:50.904Z,100940.89
2022-10-31T10:13:32.130Z,100938.48
2022-10-31T10:16:26.270Z,100939.23
2022-10-31T10:19:14.560Z,100933.84
2022-10-31T10:21:55.916Z,100941.98
2022-10-31T10:24:33.986Z,100942.23
2022-10-31T10:27:07.151Z,100941.30
2022-10-31T10:29:43.293Z,100942.63
2022-10-31T10:32:22.786Z,100940.35
2022-10-31T10:34:55.374Z,100939.08
2022-10-31T10:37:31.129Z,100940.95
2022-10-31T10:40:22.723Z,100939.16
2022-10-31T10:43:24.142Z,100939.63
2022-10-31T10:46:18.478Z,100937.61
2022-10-31T10:48:56.068Z,100926.58
2022-10-31T10:52:19.249Z,100923.42
2022-10-31T10:54:42.076Z,100926.77
2022-10-31T10:57:23.060Z,100928.45
2022-10-31T10:59:51.477Z,100929.61
2022-10-31T11:02:31.322Z,100937.88
2022-10-31T11:05:00.777Z,100935.48
2022-10-31T11:07:38.225Z,100932.48
2022-10-31T11:10:13.372Z,100928.77
2022-10-31T11:12:40.440Z,100926.06
2022-10-31T11:15:27.887Z,100925.33
2022-10-31T11:17:56.375Z,100927.01
2022-10-31T11:20:36.266Z,100922.02
2022-10-31T11:23:21.678Z,100918.87
2022-10-31T11:25:50.820Z,100923.39
2022-10-31T11:28:17.376Z,100929.67
2022-10-31T11:30:47.538Z,100927.56
2022-10-31T11:33:18.824Z,100924.29
2022-10-31T11:35:45.310Z,100928.04
2022-10-31T11:38:18.556Z,100922.89
2022-10-31T11:41:00.719Z,100921.64
2022-10-31T11:43:27.820Z,100923.08
2022-10-31T11:45:54.387Z,100922.27
2022-10-31T11:48:24.388Z,100920.04
2022-10-31T11:50:54.820Z,100920.33
2022-10-31T11:53:28.548Z,100920.21
2022-10-31T11:56:15.176Z,100922.29
2022-10-31T11:58:42.036Z,100924.20
2022-10-31T12:01:24.730Z,100925.82
2022-10-31T12:04:14.044Z,100926.83
2022-10-31T12:06:43.156Z,100919.65
2022-10-31T12:09:33.180Z,100916.86
2022-10-31T12:12:27.034Z,100919.14
2022-10-31T12:15:27.955Z,100919.83
2022-10-31T12:18:12.692Z,100918.16
2022-10-31T12:21:06.826Z,100915.36
2022-10-31T12:23:54.626Z,100910.52
2022-10-31T12:26:42.419Z,100906.21
2022-10-31T12:29:17.497Z,100911.71
2022-10-31T12:32:04.444Z,100910.73
2022-10-31T12:34:52.463Z,100911.04
2022-10-31T12:37:37.633Z,100913.36
2022-10-31T12:40:12.672Z,100913.43
2022-10-31T12:43:14.503Z,100913.95
2022-10-31T12:45:57.940Z,100912.89
2022-10-31T12:48:27.191Z,100914.09
2022-10-31T12:51:16.552Z,100916.33
2022-10-31T12:53:54.420Z,100919.15
2022-10-31T12:56:45.219Z,100916.55
2022-10-31T12:59:34.228Z,100914.60
2022-10-31T13:02:36.040Z,100912.30
2022-10-31T13:05:06.332Z,100912.79
2022-10-31T13:07:47.943Z,100912.79
2022-10-31T13:10:23.129Z,100918.73
2022-10-31T13:12:54.218Z,100913.48
2022-10-31T13:15:25.522Z,100918.38
2022-10-31T13:18:23.353Z,100916.67
2022-10-31T13:20:54.790Z,100914.91
2022-10-31T13:23:49.918Z,100917.05
2022-10-31T13:29:24.716Z,100920.38
2022-10-31T13:31:55.102Z,100918.45
2022-10-31T13:34:34.848Z,100916.30
2022-10-31T13:37:31.809Z,100912.85
2022-10-31T13:40:39.282Z,100915.66
2022-10-31T13:43:31.555Z,100916.48
2022-10-31T13:45:59.180Z,100921.73
2022-10-31T13:48:26.759Z,100918.00
2022-10-31T13:51:00.836Z,100917.08
2022-10-31T13:53:57.399Z,100912.66
2022-10-31T13:56:31.569Z,100915.23
2022-10-31T13:59:02.429Z,100920.97
2022-10-31T14:01:32.376Z,100918.94
2022-10-31T14:04:14.090Z,100919.74
2022-10-31T14:06:52.249Z,100919.01
2022-10-31T14:09:24.623Z,100920.50
2022-10-31T14:11:53.205Z,100915.35
2022-10-31T14:14:24.502Z,100911.63
2022-10-31T14:16:58.659Z,100910.47
2022-10-31T14:19:27.303Z,100910.63
2022-10-31T14:21:55.014Z,100909.43
2022-10-31T14:24:25.698Z,100908.91
2022-10-31T14:26:58.538Z,100907.83
2022-10-31T14:29:35.561Z,100907.75
2022-10-31T14:32:28.456Z,100907.89
2022-10-31T14:34:58.547Z,100906.52
2022-10-31T14:37:35.045Z,100908.63
2022-10-31T14:40:17.687Z,100904.98
2022-10-31T14:42:57.171Z,100906.74
2022-10-31T14:45:46.952Z,100899.26
2022-10-31T14:48:36.289Z,100894.83
2022-10-31T14:51:29.673Z,100895.48
2022-10-31T14:53:58.493Z,100896.48
2022-10-31T14:56:29.816Z,100895.52
2022-10-31T14:59:02.138Z,100894.68
2022-10-31T15:01:34.472Z,100894.58
2022-10-31T15:07:21.680Z,100901.27
2022-10-31T15:10:04.092Z,100902.11
2022-10-31T15:12:34.553Z,100901.98
2022-10-31T15:15:18.325Z,100902.57
2022-10-31T15:17:53.994Z,100905.80
2022-10-31T15:20:25.355Z,100906.21
2022-10-31T15:22:55.692Z,100907.23
2022-10-31T15:25:26.629Z,100903.11
2022-10-31T15:27:54.416Z,100904.68
2022-10-31T15:30:27.988Z,100903.87
2022-10-31T15:32:58.615Z,100904.48
2022-10-31T15:35:30.228Z,100903.44
2022-10-31T15:38:00.548Z,100903.55
2022-10-31T15:40:29.228Z,100899.87
2022-10-31T15:43:02.882Z,100901.73
2022-10-31T15:45:31.644Z,100903.11
2022-10-31T15:48:12.530Z,100904.33
2022-10-31T15:50:46.356Z,100906.42
2022-10-31T15:53:36.207Z,100905.52
2022-10-31T15:56:08.542Z,100910.45
2022-10-31T15:58:45.060Z,100908.70
2022-10-31T16:01:28.394Z,100905.41
2022-10-31T16:04:02.208Z,100906.62
2022-10-31T16:06:35.450Z,100913.02
2022-10-31T16:09:05.409Z,100912.07
2022-10-31T16:11:38.860Z,100910.48
2022-10-31T16:14:07.124Z,100912.27
2022-10-31T16:16:43.072Z,100912.42
2022-10-31T16:19:22.452Z,100910.78
2022-10-31T16:21:54.654Z,100916.40
2022-10-31T16:24:32.781Z,100916.29
2022-10-31T16:27:16.436Z,100914.96
2022-10-31T16:29:46.921Z,100919.04
2022-10-31T16:32:31.868Z,100915.09
2022-10-31T16:35:00.392Z,100917.57
2022-10-31T16:37:28.072Z,100910.54
2022-10-31T16:39:55.726Z,100911.73
2022-10-31T16:42:23.704Z,100913.61
2022-10-31T16:44:51.438Z,100916.66
2022-10-31T16:47:21.161Z,100914.38
2022-10-31T16:49:51.111Z,100918.23
2022-10-31T16:52:19.181Z,100919.07
2022-10-31T16:54:46.983Z,100912.25
2022-10-31T16:57:18.503Z,100910.86
2022-10-31T16:59:52.296Z,100909.81
2022-10-31T17:02:20.324Z,100912.48
2022-10-31T17:04:50.809Z,100912.36
2022-10-31T17:07:21.675Z,100913.20
2022-10-31T17:09:49.271Z,100914.52
2022-10-31T17:12:21.471Z,100919.48
2022-10-31T17:14:52.371Z,100922.70
2022-10-31T17:17:20.118Z,100919.33
2022-10-31T17:19:47.823Z,100916.10
2022-10-31T17:22:15.621Z,100915.86
2022-10-31T17:24:43.777Z,100917.09
2022-10-31T17:27:11.631Z,100917.64
2022-10-31T17:29:39.392Z,100920.27
2022-10-31T17:32:07.018Z,100922.44
2022-10-31T17:34:34.677Z,100924.41
2022-10-31T17:37:02.320Z,100927.66
2022-10-31T17:39:30.026Z,100933.92
2022-10-31T17:41:57.800Z,100933.80
2022-10-31T17:44:25.475Z,100934.10
2022-10-31T17:46:53.157Z,100938.81
2022-10-31T17:49:21.783Z,100939.12
2022-10-31T17:51:49.512Z,100941.81
2022-10-31T17:54:18.932Z,100943.91
2022-10-31T17:56:46.711Z,100939.27
2022-10-31T17:59:14.562Z,100938.14
2022-10-31T18:01:44.452Z,100934.08
2022-10-31T18:04:12.411Z,100931.23
2022-10-31T18:06:40.176Z,100930.57
2022-10-31T18:09:07.994Z,100931.08
2022-10-31T18:11:35.706Z,100925.48
2022-10-31T18:14:03.536Z,100926.70
2022-10-31T18:16:31.360Z,100919.39
2022-10-31T18:19:01.935Z,100919.17
2022-10-31T18:21:29.872Z,100924.23
2022-10-31T18:23:59.555Z,100924.99
2022-10-31T18:26:28.333Z,100923.69
2022-10-31T18:28:56.090Z,100924.42
2022-10-31T18:31:24.728Z,100921.30
2022-10-31T18:33:54.703Z,100921.45
2022-10-31T18:36:23.331Z,100922.85
2022-10-31T18:38:51.078Z,100927.61
2022-10-31T18:41:19.219Z,100923.84
2022-10-31T18:43:48.175Z,100922.84
2022-10-31T18:46:17.743Z,100920.52
2022-10-31T18:48:46.466Z,100925.34
2022-10-31T18:51:14.822Z,100926.58
2022-10-31T18:53:42.566Z,100926.11
2022-10-31T18:56:11.368Z,100928.69
2022-10-31T18:58:39.221Z,100934.61
2022-10-31T19:01:08.888Z,100932.61
2022-10-31T19:03:37.370Z,100927.47
2022-10-31T19:06:06.188Z,100921.95
2022-10-31T19:08:34.336Z,100922.31
2022-10-31T19:11:12.898Z,100924.77
2022-10-31T19:13:41.849Z,100923.34
2022-10-31T19:16:15.235Z,100925.14
2022-10-31T19:18:44.017Z,100920.23
2022-10-31T19:21:16.687Z,100917.92
2022-10-31T19:23:45.375Z,100922.34
2022-10-31T19:26:14.204Z,100915.63
2022-10-31T19:28:42.046Z,100915.98
2022-10-31T19:31:10.888Z,100914.67
2022-10-31T19:33:39.155Z,100913.41
2022-10-31T19:36:12.159Z,100915.56
2022-10-31T19:38:42.322Z,100913.16
2022-10-31T19:41:13.311Z,100916.58
2022-10-31T19:43:41.771Z,100915.48
2022-10-31T19:46:22.125Z,100914.94
2022-10-31T19:48:55.594Z,100915.48
2022-10-31T19:51:23.438Z,100910.65
2022-10-31T19:53:52.263Z,100908.14
2022-10-31T19:56:22.784Z,100905.25
2022-10-31T19:58:50.430Z,100901.42
2022-10-31T20:01:23.423Z,100907.14
2022-10-31T20:03:51.752Z,100902.91
2022-10-31T20:06:30.717Z,100899.98
2022-10-31T20:08:59.641Z,100899.45
2022-10-31T20:11:28.672Z,100900.23
2022-10-31T20:13:58.284Z,100900.58
2022-10-31T20:16:27.350Z,100896.51
2022-10-31T20:18:56.143Z,100893.09
2022-10-31T20:21:26.450Z,100893.38
2022-10-31T20:24:02.320Z,100888.30
2022-10-31T20:26:31.625Z,100886.30
2022-10-31T20:29:01.060Z,100883.77
2022-10-31T20:31:32.066Z,100888.33
2022-10-31T20:34:00.151Z,100890.09
2022-10-31T20:36:29.577Z,100892.98
2022-10-31T20:38:58.572Z,100889.64
2022-10-31T20:41:26.879Z,100894.91
2022-10-31T20:43:54.790Z,100894.02
2022-10-31T20:46:25.544Z,100895.02
2022-10-31T20:48:54.199Z,100890.46
2022-10-31T20:51:25.066Z,100892.48
2022-10-31T20:53:54.028Z,100891.16
2022-10-31T20:56:23.456Z,100893.80
2022-10-31T20:58:52.035Z,100887.55
2022-10-31T21:01:21.991Z,100887.48
2022-10-31T21:03:50.711Z,100890.08
2022-10-31T21:06:20.186Z,100889.27
2022-10-31T21:08:47.829Z,100888.62
2022-10-31T21:11:18.123Z,100888.02
2022-10-31T21:13:47.667Z,100885.09
2022-10-31T21:16:18.085Z,100882.54
2022-10-31T21:18:47.058Z,100883.20
2022-10-31T21:21:18.148Z,100884.98
2022-10-31T21:23:47.025Z,100884.83
2022-10-31T21:26:23.382Z,100885.66
2022-10-31T21:28:53.955Z,100884.48
2022-10-31T21:31:21.875Z,100887.01
2022-10-31T21:33:50.083Z,100884.36
2022-10-31T21:36:17.722Z,100880.66
2022-10-31T21:38:50.080Z,100875.38
2022-10-31T21:41:18.754Z,100875.33
2022-10-31T21:43:48.192Z,100871.80
2022-10-31T21:46:17.803Z,100872.09
2022-10-31T21:48:45.949Z,100867.38
2022-10-31T21:51:22.304Z,100870.45
2022-10-31T21:54:09.691Z,100868.80
2022-10-31T21:56:37.917Z,100866.69
2022-10-31T21:59:06.557Z,100867.51
2022-10-31T22:01:35.820Z,100865.65
2022-10-31T22:04:04.267Z,100865.58
2022-10-31T22:06:32.237Z,100858.52
2022-10-31T22:09:03.518Z,100859.68
2022-10-31T22:11:31.571Z,100860.19
2022-10-31T22:14:00.595Z,100860.77
2022-10-31T22:16:30.307Z,100861.80
2022-10-31T22:18:59.953Z,100861.54
2022-10-31T22:21:28.743Z,100858.70
2022-10-31T22:24:01.864Z,100854.18
2022-10-31T22:26:33.186Z,100856.52
2022-10-31T22:29:03.963Z,100855.77
2022-10-31T22:31:33.615Z,100860.14
2022-10-31T22:34:01.569Z,100853.42
2022-10-31T22:36:30.851Z,100853.21
2022-10-31T22:38:58.951Z,100851.61
2022-10-31T22:41:30.727Z,100848.34
2022-10-31T22:43:59.179Z,100842.16
2022-10-31T22:46:29.921Z,100838.92
2022-10-31T22:49:01.315Z,100840.16
2022-10-31T22:51:38.259Z,100840.44
2022-10-31T22:54:09.918Z,100839.49
2022-10-31T22:56:38.329Z,100836.40
2022-10-31T22:59:06.431Z,100837.84
2022-10-31T23:01:35.011Z,100841.27
2022-10-31T23:04:03.157Z,100841.02
2022-10-31T23:06:32.699Z,100844.15
2022-10-31T23:09:02.181Z,100841.54
2022-10-31T23:11:33.279Z,100842.71
2022-10-31T23:14:09.578Z,100843.57
2022-10-31T23:16:40.303Z,100845.31
2022-10-31T23:19:09.354Z,100840.67
2022-10-31T23:21:57.521Z,100838.14
2022-10-31T23:24:25.408Z,100837.95
2022-10-31T23:27:07.704Z,100837.41
2022-10-31T23:29:45.543Z,100833.65
2022-10-31T23:32:19.158Z,100836.45
2022-10-31T23:34:49.474Z,100836.21
2022-10-31T23:37:19.326Z,100835.85
2022-10-31T23:39:47.786Z,100837.42
2022-10-31T23:42:16.027Z,100838.56
2022-10-31T23:44:43.697Z,100838.88
2022-10-31T23:47:11.908Z,100835.66
2022-10-31T23:49:39.659Z,100829.48
2022-10-31T23:52:07.975Z,100824.89
2022-10-31T23:54:35.768Z,100824.46
2022-10-31T23:57:04.025Z,100821.70
2022-10-31T23:59:32.851Z,100824.70
